YPLM

Details ICAO YPLM (LEA)
Name Learmonth
Region Australia
Timezone Australia/Perth (UTC+8.0)
Plans Departing 16
Arriving 34
Stats Elevation 19 ft / 6 m (AMSL)
Location -22.233620° 114.090064°
Runways 1
Magnetic Variation 0.299° E
Sunrise 2017-12-14 21:35:34 UTC / 2017-12-15 05:35:34 Local
Sunset 2017-12-15 11:04:30 UTC / 2017-12-15 19:04:30 Local
Advertisement - Login to hide

Runways

ID Width Length Bearing (true) Bearing (mag) Surface Threshold Offset Overrun Length
18 148 ft / 45 m 10,548 ft / 3,215 m 183.82° 183.52° Asphalt 180 ft / 55 m 0 ft / 0 m
36 148 ft / 45 m 10,548 ft / 3,215 m 3.82° 3.52° Asphalt 240 ft / 73 m 0 ft / 0 m

Map

Weather


0- 5 10 15 20 25 30 35+ Temperature / ° C

Clouds and Precipitation
Forecast for 2017-12-15 18:00 UTC. Updated an hour ago

Ground ~20,000 ft ~40,000 ft Winds

METAR

YPLM 151400Z AUTO 21014KT 9999 // NCD 23/19 Q1009

TAF

TAF YPLM 151107Z 1512/1612 23014KT 9999 SCT010 FM160400 23018KT CAVOK

Frequencies

Unicom 118.30 MHz CTAF
Approach 120.50 MHz APP
Tower 118.30 MHz TWR
Warning: Do not use this data for real-world aviation or navigation. No guarantee of current accuracy is given.